Time;durP1;ratioP1;P1;durP2;ratioP2;P2;SDS_P1;SDS_P2;PMS_P1;PMS_P2;Temp;Humidity;BMP_temperature;BMP_pressure;BME280_temperature;BME280_humidity;BME280_pressure;Samples;Min_cycle;Max_cycle;Signal;HPM_P1;HPM_P2
2024/03/14 00:00:59;;;;;;;21.10;14.67;;;;;;;5.89;85.08;100583.97;5104629;28;20210;-66
2024/03/14 00:03:28;;;;;;;18.77;15.40;;;;;;;5.90;85.36;100580.63;5079979;28;20211;-65
2024/03/14 00:05:56;;;;;;;18.17;14.13;;;;;;;5.92;86.18;100581.47;5091893;28;20227;-66
2024/03/14 00:08:25;;;;;;;20.67;14.77;;;;;;;5.94;86.08;100577.31;5093913;28;20908;-70
2024/03/14 00:10:54;;;;;;;17.87;13.70;;;;;;;5.96;86.07;100575.59;5093730;28;20932;-64
2024/03/14 00:13:23;;;;;;;19.43;14.47;;;;;;;5.93;85.83;100573.00;5099744;28;20267;-65
2024/03/14 00:15:51;;;;;;;18.77;13.77;;;;;;;5.95;85.79;100573.91;5090969;28;20227;-66
2024/03/14 00:18:19;;;;;;;19.23;14.70;;;;;;;5.97;85.72;100573.09;5110202;28;20211;-66
2024/03/14 00:20:47;;;;;;;16.87;13.50;;;;;;;6.00;86.14;100577.38;5090046;28;20265;-66
2024/03/14 00:23:16;;;;;;;17.60;13.73;;;;;;;5.98;85.36;100577.38;5093381;28;20204;-65
2024/03/14 00:25:44;;;;;;;16.77;12.97;;;;;;;5.97;85.30;100578.22;5099614;28;20295;-66
2024/03/14 00:28:12;;;;;;;18.60;13.60;;;;;;;5.99;85.31;100578.22;5093663;28;20211;-65
2024/03/14 00:30:41;;;;;;;18.63;14.23;;;;;;;6.00;85.14;100577.38;5101167;28;20204;-65
2024/03/14 00:33:10;;;;;;;20.70;14.60;;;;;;;5.96;85.24;100570.50;5106386;28;20200;-65
2024/03/14 00:35:39;;;;;;;21.47;14.33;;;;;;;5.95;85.93;100576.44;5093383;28;20308;-65
2024/03/14 00:38:07;;;;;;;20.00;14.50;;;;;;;5.92;85.50;100572.13;5092921;28;20206;-65
2024/03/14 00:40:36;;;;;;;21.60;14.90;;;;;;;5.92;85.81;100573.81;5097657;28;20572;-65
2024/03/14 00:43:05;;;;;;;21.17;14.87;;;;;;;5.92;85.98;100571.25;5091139;28;20590;-66
2024/03/14 00:45:33;;;;;;;20.73;14.70;;;;;;;5.91;85.77;100569.53;5091427;28;20238;-67
2024/03/14 00:48:01;;;;;;;19.90;14.07;;;;;;;5.95;86.39;100571.34;5090516;28;20210;-65
2024/03/14 00:50:33;;;;;;;19.73;14.00;;;;;;;5.92;85.76;100567.03;5093390;28;20221;-66
2024/03/14 00:53:02;;;;;;;20.90;14.73;;;;;;;5.89;85.91;100561.84;5090776;28;20215;-65
2024/03/14 00:55:30;;;;;;;17.70;13.87;;;;;;;5.88;85.67;100570.34;5093649;28;20655;-67
2024/03/14 00:58:00;;;;;;;22.37;15.33;;;;;;;5.84;85.92;100566.03;5101288;28;20203;-65
2024/03/14 01:00:29;;;;;;;20.90;15.27;;;;;;;5.80;86.04;100570.22;5097012;28;20745;-66
2024/03/14 01:02:57;;;;;;;21.63;16.33;;;;;;;5.80;86.66;100567.66;5090800;28;20256;-65
2024/03/14 01:05:26;;;;;;;24.80;16.07;;;;;;;5.82;86.62;100566.00;5091770;28;20200;-65
2024/03/14 01:07:54;;;;;;;24.13;16.10;;;;;;;5.88;86.85;100574.59;5093833;28;20292;-68
2024/03/14 01:10:21;;;;;;;23.17;16.60;;;;;;;5.92;87.11;100566.13;5096596;28;20231;-65
2024/03/14 01:12:50;;;;;;;23.37;16.73;;;;;;;5.94;87.46;100570.47;5092419;28;20287;-66
2024/03/14 01:15:18;;;;;;;24.23;17.03;;;;;;;5.98;86.37;100558.59;5102261;28;20572;-65
2024/03/14 01:17:46;;;;;;;24.27;17.40;;;;;;;6.00;86.25;100557.81;5090277;28;20204;-66
2024/03/14 01:20:16;;;;;;;24.53;17.03;;;;;;;6.02;86.52;100557.81;5092309;28;20200;-66
2024/03/14 01:22:44;;;;;;;25.03;17.63;;;;;;;6.04;86.45;100561.25;5090412;28;20200;-64
2024/03/14 01:25:13;;;;;;;23.13;16.77;;;;;;;6.05;86.41;100552.75;5092810;28;20218;-65
2024/03/14 01:27:41;;;;;;;23.67;16.83;;;;;;;6.04;86.35;100549.34;5093063;28;20214;-64
2024/03/14 01:30:12;;;;;;;24.43;17.17;;;;;;;6.04;86.54;100545.91;5104423;28;20647;-65
2024/03/14 01:32:40;;;;;;;25.20;17.90;;;;;;;6.03;86.34;100549.28;5096882;28;20200;-68
2024/03/14 01:35:08;;;;;;;23.97;18.23;;;;;;;6.03;86.67;100546.72;5090271;28;20216;-65
2024/03/14 01:37:36;;;;;;;25.00;18.33;;;;;;;6.02;86.16;100542.47;5091553;28;20204;-63
2024/03/14 01:40:06;;;;;;;28.27;18.87;;;;;;;6.04;86.55;100546.78;5093083;28;20208;-62
2024/03/14 01:42:34;;;;;;;25.63;18.90;;;;;;;6.03;86.30;100546.72;5102885;28;20629;-61
2024/03/14 01:45:04;;;;;;;29.53;20.30;;;;;;;6.03;86.00;100549.28;5092721;28;20245;-63
2024/03/14 01:47:33;;;;;;;30.53;21.50;;;;;;;6.01;86.48;100540.75;5096490;28;20627;-61
2024/03/14 01:50:05;;;;;;;31.60;21.67;;;;;;;6.02;86.65;100542.47;5096610;28;20208;-62
2024/03/14 01:52:35;;;;;;;37.27;23.03;;;;;;;6.01;87.10;100543.31;5106793;28;20212;-61
2024/03/14 01:55:03;;;;;;;36.70;23.83;;;;;;;5.99;86.54;100542.41;5094272;28;20239;-61
2024/03/14 01:57:31;;;;;;;37.83;23.73;;;;;;;5.93;86.67;100547.41;5096313;28;20212;-61
2024/03/14 02:00:00;;;;;;;36.33;24.83;;;;;;;5.89;87.21;100553.28;5096673;28;20651;-63
2024/03/14 02:02:28;;;;;;;39.40;25.60;;;;;;;5.89;86.96;100550.75;5096530;28;20652;-60
2024/03/14 02:04:56;;;;;;;38.20;24.83;;;;;;;5.87;86.77;100543.06;5097952;28;20203;-63
2024/03/14 02:07:25;;;;;;;37.80;24.87;;;;;;;5.86;86.98;100549.03;5097383;28;20211;-61
2024/03/14 02:09:53;;;;;;;33.10;23.90;;;;;;;5.85;87.43;100538.75;5089495;27;20209;-63
2024/03/14 02:12:22;;;;;;;39.07;24.80;;;;;;;5.82;86.28;100545.56;5094718;28;20226;-62
2024/03/14 02:14:50;;;;;;;39.23;26.03;;;;;;;5.82;87.21;100544.69;5090392;28;20736;-62
2024/03/14 02:17:18;;;;;;;39.50;25.33;;;;;;;5.80;86.83;100543.78;5095790;28;20200;-61
2024/03/14 02:19:46;;;;;;;39.27;25.73;;;;;;;5.81;87.34;100548.06;5096466;28;20663;-61
2024/03/14 02:22:21;;;;;;;42.83;27.67;;;;;;;5.80;87.19;100542.09;5095921;28;20210;-62
2024/03/14 02:24:51;;;;;;;45.53;26.83;;;;;;;5.79;86.70;100544.63;5094859;28;20196;-62
2024/03/14 02:27:19;;;;;;;42.20;27.20;;;;;;;5.73;87.10;100539.41;5097955;28;20204;-62
2024/03/14 02:29:48;;;;;;;43.00;27.20;;;;;;;5.73;87.43;100539.41;5093503;28;20196;-61
2024/03/14 02:32:18;;;;;;;44.27;28.47;;;;;;;5.71;87.14;100539.41;5095154;28;20204;-61
2024/03/14 02:34:46;;;;;;;37.63;26.03;;;;;;;5.72;87.08;100540.25;5095804;28;20226;-63
2024/03/14 02:37:14;;;;;;;41.57;25.67;;;;;;;5.70;87.25;100540.22;5091849;28;20215;-66
2024/03/14 02:39:42;;;;;;;39.00;25.90;;;;;;;5.71;87.76;100541.97;5095528;28;20651;-65
2024/03/14 02:42:11;;;;;;;37.67;26.50;;;;;;;5.70;87.49;100540.22;5097798;28;20210;-66
2024/03/14 02:44:39;;;;;;;42.00;27.03;;;;;;;5.70;87.51;100540.22;5088992;28;20213;-65
2024/03/14 02:47:08;;;;;;;40.83;27.90;;;;;;;5.71;87.32;100541.09;5095776;28;20219;-63
2024/03/14 02:49:38;;;;;;;45.27;28.70;;;;;;;5.74;87.27;100543.69;5090513;28;20208;-66
2024/03/14 02:52:06;;;;;;;44.57;29.40;;;;;;;5.77;87.78;100541.19;5096264;28;20978;-66
2024/03/14 02:54:35;;;;;;;43.47;27.63;;;;;;;5.83;87.12;100541.28;5093025;28;20200;-66
2024/03/14 02:57:03;;;;;;;40.67;26.97;;;;;;;5.85;87.25;100533.63;5097636;28;20278;-67
2024/03/14 02:59:32;;;;;;;43.90;28.07;;;;;;;5.88;87.12;100533.69;5090571;28;20627;-67
2024/03/14 03:02:01;;;;;;;47.70;27.67;;;;;;;5.87;87.08;100537.09;5087489;28;20663;-64
2024/03/14 03:04:30;;;;;;;45.80;29.33;;;;;;;5.86;86.49;100536.22;5095249;28;20200;-66
2024/03/14 03:07:05;;;;;;;44.47;28.93;;;;;;;5.85;87.28;100537.03;5101601;27;20200;-67
2024/03/14 03:09:36;;;;;;;43.53;28.13;;;;;;;5.89;87.43;100541.41;5092595;28;20674;-66
2024/03/14 03:12:04;;;;;;;45.13;29.07;;;;;;;5.89;87.08;100540.50;5095483;28;21556;-65
2024/03/14 03:14:32;;;;;;;47.50;28.87;;;;;;;5.87;87.01;100529.41;5094202;28;20239;-66
2024/03/14 03:17:00;;;;;;;47.47;30.07;;;;;;;5.80;86.56;100539.53;5091308;28;20908;-66
2024/03/14 03:19:28;;;;;;;41.20;27.70;;;;;;;5.81;87.14;100533.56;5094028;28;20651;-67
2024/03/14 03:21:58;;;;;;;41.20;27.33;;;;;;;5.82;87.21;100539.59;5091302;28;20211;-68
2024/03/14 03:24:25;;;;;;;41.13;27.17;;;;;;;5.83;87.24;100533.63;5086878;28;20223;-65
2024/03/14 03:26:53;;;;;;;39.90;26.27;;;;;;;5.84;87.42;100537.03;5105883;28;20199;-66
2024/03/14 03:29:20;;;;;;;36.67;25.20;;;;;;;5.83;87.15;100536.19;5094368;28;20208;-66
2024/03/14 03:31:49;;;;;;;36.77;24.60;;;;;;;5.83;87.15;100536.19;5087177;28;20203;-66
2024/03/14 03:34:19;;;;;;;37.33;24.80;;;;;;;5.85;87.56;100538.75;5093792;28;20204;-67
2024/03/14 03:36:47;;;;;;;35.87;25.10;;;;;;;5.87;87.43;100531.97;5090038;28;20224;-71
2024/03/14 03:39:15;;;;;;;35.10;24.33;;;;;;;5.89;86.83;100537.94;5093102;28;20211;-66
2024/03/14 03:41:42;;;;;;;35.30;25.03;;;;;;;5.88;86.57;100524.31;5092355;28;20235;-65
2024/03/14 03:44:10;;;;;;;37.60;24.93;;;;;;;5.89;87.20;100528.63;5110603;28;20204;-66
2024/03/14 03:46:42;;;;;;;35.53;24.13;;;;;;;5.90;86.04;100527.75;5096558;28;20215;-68
2024/03/14 03:49:10;;;;;;;37.47;24.60;;;;;;;5.91;87.25;100528.63;5085385;28;20196;-66
2024/03/14 03:51:37;;;;;;;34.07;24.77;;;;;;;5.88;87.09;100529.44;5092537;28;20276;-66
2024/03/14 03:54:05;;;;;;;32.43;23.83;;;;;;;5.89;86.98;100532.84;5093825;28;20200;-65
2024/03/14 03:56:33;;;;;;;36.47;25.23;;;;;;;5.87;87.04;100532.81;5094506;28;20703;-64
2024/03/14 03:59:01;;;;;;;33.73;24.23;;;;;;;5.87;86.73;100517.47;5095591;28;20272;-68
2024/03/14 04:01:29;;;;;;;32.73;23.87;;;;;;;5.88;86.46;100521.75;5091745;28;20204;-66
2024/03/14 04:03:57;;;;;;;32.37;23.77;;;;;;;5.91;86.84;100531.19;5093999;28;20663;-65
2024/03/14 04:06:24;;;;;;;34.53;23.47;;;;;;;5.90;86.74;100527.75;5107147;28;20208;-65
2024/03/14 04:08:52;;;;;;;29.47;21.53;;;;;;;5.87;86.57;100532.81;5094832;27;20568;-65
2024/03/14 04:11:20;;;;;;;34.90;22.67;;;;;;;5.83;86.67;100531.06;5093070;28;20561;-66
2024/03/14 04:13:48;;;;;;;35.13;23.33;;;;;;;5.80;86.51;100542.09;5096985;28;20292;-66
2024/03/14 04:16:15;;;;;;;34.27;23.13;;;;;;;5.78;86.97;100540.34;5089977;28;20263;-64
2024/03/14 04:18:44;;;;;;;34.53;24.53;;;;;;;5.78;86.92;100538.66;5091049;28;20723;-66
2024/03/14 04:21:15;;;;;;;37.33;24.90;;;;;;;5.79;87.66;100535.28;5094223;28;20260;-63
2024/03/14 04:23:43;;;;;;;36.90;23.97;;;;;;;5.79;86.79;100539.53;5106752;28;20669;-64
2024/03/14 04:26:15;;;;;;;36.27;25.33;;;;;;;5.77;87.15;100542.03;5096914;28;20204;-63
2024/03/14 04:28:44;;;;;;;38.13;25.80;;;;;;;5.77;87.32;100536.94;5105428;28;20199;-64
2024/03/14 04:31:12;;;;;;;33.50;23.87;;;;;;;5.77;87.59;100539.47;5093512;28;20242;-63
2024/03/14 04:33:40;;;;;;;37.17;25.83;;;;;;;5.77;87.21;100547.16;5093801;28;20656;-63
2024/03/14 04:36:09;;;;;;;35.53;24.77;;;;;;;5.76;87.14;100550.56;5093611;28;20696;-64
2024/03/14 04:38:38;;;;;;;37.43;25.80;;;;;;;5.73;87.16;100547.94;5091976;28;20203;-63
2024/03/14 04:41:14;;;;;;;37.47;24.50;;;;;;;5.69;87.22;100548.75;5093498;28;20203;-64
2024/03/14 04:43:43;;;;;;;37.83;24.97;;;;;;;5.66;87.61;100546.13;5084846;28;20306;-62
2024/03/14 04:46:11;;;;;;;35.23;24.47;;;;;;;5.62;86.66;100546.91;5096128;28;20291;-63
2024/03/14 04:48:41;;;;;;;37.10;25.23;;;;;;;5.56;87.70;100552.81;5092637;28;20658;-63
2024/03/14 04:51:11;;;;;;;31.20;22.93;;;;;;;5.51;87.13;100559.50;5093699;28;20206;-64
2024/03/14 04:53:40;;;;;;;32.53;22.17;;;;;;;5.49;87.78;100561.19;5093093;28;20207;-62
2024/03/14 04:56:09;;;;;;;30.30;21.23;;;;;;;5.49;88.09;100565.44;5089838;28;20248;-63
2024/03/14 04:58:37;;;;;;;31.87;21.60;;;;;;;5.48;87.95;100558.59;5089259;28;20188;-64
2024/03/14 05:01:05;;;;;;;32.53;21.23;;;;;;;5.49;88.19;100560.34;5084792;28;20228;-64
2024/03/14 05:03:34;;;;;;;30.87;20.60;;;;;;;5.49;87.64;100563.75;5097154;28;20207;-64
2024/03/14 05:06:03;;;;;;;33.03;21.87;;;;;;;5.53;88.13;100567.22;5091651;28;20283;-63
2024/03/14 05:08:31;;;;;;;30.33;21.63;;;;;;;5.58;87.75;100566.44;5092912;28;20220;-64
2024/03/14 05:10:59;;;;;;;30.67;22.37;;;;;;;5.61;88.53;100565.66;5097826;28;20214;-63
2024/03/14 05:13:28;;;;;;;29.40;20.97;;;;;;;5.64;87.98;100565.72;5092807;28;20235;-65
2024/03/14 05:15:57;;;;;;;29.07;21.10;;;;;;;5.66;87.71;100563.16;5094201;28;20231;-63
2024/03/14 05:18:25;;;;;;;31.97;21.80;;;;;;;5.67;87.31;100565.75;5080863;28;20216;-64
2024/03/14 05:20:54;;;;;;;33.37;22.63;;;;;;;5.67;86.66;100568.31;5092153;28;20215;-64
2024/03/14 05:23:23;;;;;;;33.53;21.80;;;;;;;5.62;86.58;100562.25;5098475;27;20204;-64
2024/03/14 05:25:54;;;;;;;33.73;22.43;;;;;;;5.60;86.69;100563.94;5090796;28;20196;-63
2024/03/14 05:28:22;;;;;;;32.43;21.93;;;;;;;5.61;86.84;100570.75;5091600;28;20206;-64
2024/03/14 05:30:52;;;;;;;30.87;21.70;;;;;;;5.63;87.25;100573.31;5094346;27;20204;-65
2024/03/14 05:33:20;;;;;;;30.83;21.53;;;;;;;5.66;87.32;100566.56;5097382;28;20204;-64
2024/03/14 05:35:49;;;;;;;31.77;21.27;;;;;;;5.71;87.23;100564.13;5096593;28;20211;-64
2024/03/14 05:38:18;;;;;;;29.47;21.20;;;;;;;5.68;86.35;100564.91;5097985;28;20224;-65
2024/03/14 05:40:46;;;;;;;30.03;21.23;;;;;;;5.67;86.79;100564.88;5108563;28;20196;-65
2024/03/14 05:43:14;;;;;;;34.53;21.53;;;;;;;5.71;87.12;100570.09;5093012;28;20210;-62
2024/03/14 05:45:42;;;;;;;30.63;21.27;;;;;;;5.72;86.52;100578.63;5098918;28;20196;-64
2024/03/14 05:48:11;;;;;;;31.97;19.97;;;;;;;5.68;86.43;100570.03;5092698;28;20210;-61
2024/03/14 05:50:41;;;;;;;26.67;19.43;;;;;;;5.67;86.84;100573.44;5102483;28;20217;-63
2024/03/14 05:53:10;;;;;;;27.47;18.33;;;;;;;5.69;86.59;100571.75;5094379;28;20726;-64
2024/03/14 05:55:38;;;;;;;28.30;18.87;;;;;;;5.72;86.97;100582.03;5096122;28;20204;-64
2024/03/14 05:58:06;;;;;;;25.83;19.47;;;;;;;5.74;86.08;100580.38;5094682;28;20270;-66
2024/03/14 06:00:34;;;;;;;29.63;18.60;;;;;;;5.78;86.45;100583.81;5096121;28;20598;-65
2024/03/14 06:03:02;;;;;;;26.10;18.77;;;;;;;5.83;86.20;100582.22;5096342;28;20245;-67
2024/03/14 06:05:30;;;;;;;25.93;18.07;;;;;;;5.90;85.95;100589.16;5092757;28;20200;-66
2024/03/14 06:07:59;;;;;;;28.33;18.97;;;;;;;5.96;85.91;100585.84;5084474;28;20215;-65
2024/03/14 06:10:27;;;;;;;24.80;17.20;;;;;;;6.00;86.08;100590.16;5092318;28;20540;-66
2024/03/14 06:12:55;;;;;;;26.10;18.50;;;;;;;6.06;86.03;100595.38;5094658;28;20204;-66
2024/03/14 06:15:23;;;;;;;25.77;18.17;;;;;;;6.10;85.39;100586.91;5093341;28;20597;-66
2024/03/14 06:17:51;;;;;;;27.43;18.63;;;;;;;6.10;84.50;100589.47;5092000;28;20265;-65
2024/03/14 06:20:22;;;;;;;26.63;17.87;;;;;;;6.12;85.01;100585.25;5094657;28;20250;-65
2024/03/14 06:22:50;;;;;;;28.90;19.33;;;;;;;6.14;84.64;100588.69;5092650;28;20284;-65
2024/03/14 06:25:18;;;;;;;29.70;20.37;;;;;;;6.15;84.15;100595.53;5096043;28;20666;-65
2024/03/14 06:27:48;;;;;;;28.23;19.43;;;;;;;6.14;83.60;100596.34;5092356;28;20226;-65
2024/03/14 06:30:16;;;;;;;28.30;20.13;;;;;;;6.18;84.42;100602.38;5106048;28;20206;-65
2024/03/14 06:32:47;;;;;;;29.00;19.70;;;;;;;6.17;84.09;100601.53;5094455;28;20723;-64
2024/03/14 06:35:17;;;;;;;26.10;19.57;;;;;;;6.22;84.28;100607.59;5108540;28;20291;-65
2024/03/14 06:37:46;;;;;;;27.13;19.60;;;;;;;6.28;84.77;100600.00;5084194;28;20215;-65
2024/03/14 06:40:15;;;;;;;28.13;19.10;;;;;;;6.34;84.15;100593.25;5094717;28;20204;-65
2024/03/14 06:42:45;;;;;;;26.33;19.47;;;;;;;6.41;83.33;100602.75;5095069;28;20208;-66
2024/03/14 06:45:14;;;;;;;27.63;19.60;;;;;;;6.46;82.96;100606.22;5090931;28;20208;-65
2024/03/14 06:47:45;;;;;;;26.07;19.03;;;;;;;6.48;83.63;100602.84;5090497;28;20196;-65
2024/03/14 06:50:14;;;;;;;24.90;18.13;;;;;;;6.54;83.39;100604.63;5102219;28;20196;-66
2024/03/14 06:52:43;;;;;;;27.53;19.33;;;;;;;6.57;83.29;100604.66;5098594;28;20303;-67
2024/03/14 06:55:12;;;;;;;28.57;19.37;;;;;;;6.59;82.23;100604.69;5100905;28;20208;-63
2024/03/14 06:57:40;;;;;;;29.17;19.50;;;;;;;6.61;82.95;100603.88;5087326;28;20220;-65
2024/03/14 07:00:16;;;;;;;29.60;19.23;;;;;;;6.60;82.16;100599.59;5093370;28;20196;-64
2024/03/14 07:02:46;;;;;;;29.23;19.90;;;;;;;6.62;82.75;100608.13;5093514;28;20200;-65
2024/03/14 07:05:15;;;;;;;27.73;19.93;;;;;;;6.69;83.36;100607.38;5094971;28;20244;-65
2024/03/14 07:07:45;;;;;;;31.23;20.80;;;;;;;6.76;82.24;100606.63;5092567;28;20204;-65
2024/03/14 07:10:14;;;;;;;29.23;19.57;;;;;;;6.84;82.32;100611.00;5106438;28;20272;-62
2024/03/14 07:12:45;;;;;;;26.47;19.37;;;;;;;6.88;81.70;100616.16;5093387;28;20944;-66
2024/03/14 07:15:17;;;;;;;25.03;18.63;;;;;;;6.93;81.17;100613.69;5108241;28;20284;-66
2024/03/14 07:17:46;;;;;;;30.60;20.43;;;;;;;7.03;80.81;100615.50;5091971;28;20208;-65
2024/03/14 07:20:18;;;;;;;29.30;20.37;;;;;;;7.10;80.57;100607.03;5108996;28;20207;-65
2024/03/14 07:22:46;;;;;;;27.33;19.07;;;;;;;7.13;79.76;100621.59;5092887;28;20196;-70
2024/03/14 07:25:17;;;;;;;33.07;20.30;;;;;;;7.13;79.90;100617.31;5105401;28;20208;-66
2024/03/14 07:27:48;;;;;;;28.37;20.00;;;;;;;7.22;80.54;100619.16;5081245;28;20200;-67
2024/03/14 07:30:16;;;;;;;28.30;20.27;;;;;;;7.30;78.37;100619.22;5082109;28;20639;-64
2024/03/14 07:32:46;;;;;;;28.37;19.77;;;;;;;7.38;78.50;100618.47;5094421;28;20211;-66
2024/03/14 07:35:15;;;;;;;26.97;19.90;;;;;;;7.47;77.79;100613.44;5086903;27;20204;-67
2024/03/14 07:37:47;;;;;;;28.20;19.70;;;;;;;7.62;78.63;100606.72;5092023;28;20280;-65
2024/03/14 07:40:16;;;;;;;25.80;19.43;;;;;;;7.75;78.03;100608.56;5094628;28;20279;-65
2024/03/14 07:42:46;;;;;;;29.47;19.60;;;;;;;7.86;76.54;100613.78;5094427;28;20199;-65
2024/03/14 07:45:17;;;;;;;29.77;20.43;;;;;;;7.87;76.00;100608.66;5088856;28;20208;-66
2024/03/14 07:47:45;;;;;;;27.63;20.50;;;;;;;7.91;76.48;100612.13;5094510;28;20202;-66
2024/03/14 07:50:14;;;;;;;31.73;20.17;;;;;;;7.93;76.07;100613.00;5102010;28;20677;-64
2024/03/14 07:52:44;;;;;;;29.63;20.27;;;;;;;8.03;76.32;100614.81;5104483;28;20277;-65
2024/03/14 07:55:16;;;;;;;26.90;19.80;;;;;;;8.08;75.73;100607.97;5094645;28;20580;-66
2024/03/14 07:57:46;;;;;;;28.43;19.83;;;;;;;8.08;74.97;100607.97;5094020;28;20329;-67
2024/03/14 08:00:16;;;;;;;28.97;19.83;;;;;;;8.04;73.58;100616.50;5098743;28;20199;-67
2024/03/14 08:02:54;;;;;;;27.93;20.33;;;;;;;8.02;75.24;100612.19;5090224;28;20204;-65
2024/03/14 08:05:25;;;;;;;25.90;19.57;;;;;;;8.09;76.09;100627.66;5095612;28;20227;-67
2024/03/14 08:07:53;;;;;;;31.83;20.50;;;;;;;8.18;75.92;100638.00;5091846;28;20708;-64
2024/03/14 08:10:45;;;;;;;28.43;20.10;;;;;;;8.30;75.96;100628.69;5090149;28;20287;-64
2024/03/14 08:13:17;;;;;;;28.50;19.77;;;;;;;8.35;74.55;100627.84;5106553;27;20204;-66
2024/03/14 08:15:52;;;;;;;30.67;21.23;;;;;;;8.37;73.91;100630.44;5087717;27;20192;-64
2024/03/14 08:18:24;;;;;;;28.20;20.60;;;;;;;8.34;73.39;100626.13;5091413;28;20214;-66
2024/03/14 08:20:55;;;;;;;30.70;19.93;;;;;;;8.33;73.63;100633.84;5089166;28;20209;-71
2024/03/14 08:23:26;;;;;;;32.40;20.57;;;;;;;8.34;73.68;100625.28;5104651;28;20264;-68
2024/03/14 08:25:55;;;;;;;30.07;19.67;;;;;;;8.39;73.35;100629.63;5090460;28;20244;-68
2024/03/14 08:28:23;;;;;;;26.07;18.90;;;;;;;8.35;73.02;100638.13;5091740;28;20200;-68
2024/03/14 08:30:51;;;;;;;27.23;19.97;;;;;;;8.21;72.20;100635.47;5086443;27;20693;-68
2024/03/14 08:33:22;;;;;;;26.17;19.37;;;;;;;8.00;73.10;100640.44;5092362;28;20568;-67
2024/03/14 08:35:52;;;;;;;30.13;21.20;;;;;;;7.91;73.65;100650.59;5091974;28;20204;-67
2024/03/14 08:38:21;;;;;;;32.40;19.97;;;;;;;7.80;74.60;100644.50;5092060;28;20275;-68
2024/03/14 08:40:50;;;;;;;31.57;20.20;;;;;;;7.75;74.58;100649.59;5099014;28;20663;-68
2024/03/14 08:43:18;;;;;;;28.50;18.97;;;;;;;7.75;75.29;100650.47;5090139;28;20199;-68
2024/03/14 08:45:48;;;;;;;31.40;20.17;;;;;;;7.81;75.01;100656.50;5091284;28;20670;-69
2024/03/14 08:48:17;;;;;;;29.50;20.10;;;;;;;7.81;75.36;100649.69;5087507;28;20257;-68
2024/03/14 08:50:46;;;;;;;30.33;19.67;;;;;;;7.86;75.91;100654.84;5088431;28;20207;-71
2024/03/14 08:53:15;;;;;;;27.40;19.77;;;;;;;7.91;75.40;100650.59;5093658;28;20244;-69
2024/03/14 08:57:33;;;;;;;29.27;20.53;;;;;;;7.85;74.45;100651.41;5073766;27;21142;-69
2024/03/14 09:00:02;;;;;;;27.00;19.10;;;;;;;7.75;73.81;100655.59;5045822;28;20209;-71
2024/03/14 09:02:32;;;;;;;28.63;18.33;;;;;;;7.71;75.10;100653.00;5047600;28;20236;-68
2024/03/14 09:05:05;;;;;;;30.43;20.10;;;;;;;7.76;75.88;100651.31;5049989;28;20261;-69
2024/03/14 09:07:34;;;;;;;28.07;19.63;;;;;;;7.81;75.56;100653.94;5048207;28;20208;-66
2024/03/14 09:10:04;;;;;;;29.13;19.27;;;;;;;7.89;75.88;100662.56;5049928;28;20581;-70
2024/03/14 09:12:32;;;;;;;30.50;19.60;;;;;;;7.97;76.44;100656.66;5046792;28;20594;-69
2024/03/14 09:15:01;;;;;;;30.23;20.07;;;;;;;8.07;76.29;100657.59;5048034;28;20662;-69
2024/03/14 09:17:29;;;;;;;29.07;20.60;;;;;;;8.14;74.24;100649.09;5047910;28;20744;-67
2024/03/14 09:19:59;;;;;;;32.80;20.70;;;;;;;8.15;74.47;100648.25;5047787;28;20213;-71
2024/03/14 09:22:27;;;;;;;30.23;20.23;;;;;;;8.13;74.67;100646.50;5049701;28;20213;-65
2024/03/14 09:24:57;;;;;;;29.17;20.20;;;;;;;8.14;75.22;100638.84;5049328;28;20232;-67
2024/03/14 09:27:25;;;;;;;28.17;19.87;;;;;;;8.20;74.91;100644.00;5055312;28;20201;-66
2024/03/14 09:29:55;;;;;;;26.90;19.10;;;;;;;8.28;75.10;100641.50;5040609;28;20285;-65
2024/03/14 09:32:25;;;;;;;26.63;18.57;;;;;;;8.40;74.58;100643.34;5047625;28;20205;-65
2024/03/14 09:34:53;;;;;;;26.10;19.97;;;;;;;8.51;74.54;100639.13;5045796;28;20606;-65
2024/03/14 09:37:25;;;;;;;27.93;19.37;;;;;;;8.54;73.82;100639.13;5045028;28;20616;-67
2024/03/14 09:39:54;;;;;;;27.57;19.73;;;;;;;8.57;73.35;100633.16;5044781;28;20210;-66
2024/03/14 09:42:22;;;;;;;27.07;18.50;;;;;;;8.66;74.24;100636.66;5048239;28;20198;-66
2024/03/14 09:44:50;;;;;;;27.53;18.50;;;;;;;8.82;73.81;100629.03;5055332;28;20201;-69
2024/03/14 09:47:20;;;;;;;32.63;22.20;;;;;;;8.97;73.72;100638.50;5046981;28;20197;-67
2024/03/14 09:49:48;;;;;;;28.10;18.40;;;;;;;9.05;72.55;100629.13;5048396;28;20213;-67
2024/03/14 09:52:16;;;;;;;27.40;19.47;;;;;;;9.08;72.54;100637.69;5049224;28;20599;-67
2024/03/14 09:54:44;;;;;;;26.80;19.50;;;;;;;9.09;72.19;100639.41;5047877;28;20202;-68
2024/03/14 09:57:12;;;;;;;28.93;19.53;;;;;;;9.13;72.16;100641.16;5048479;28;20339;-67
2024/03/14 09:59:40;;;;;;;28.60;20.97;;;;;;;9.16;71.40;100636.00;5045887;28;20213;-66
2024/03/14 10:02:09;;;;;;;28.30;19.87;;;;;;;9.12;70.86;100634.28;5050646;28;20685;-64
2024/03/14 10:04:37;;;;;;;27.17;18.67;;;;;;;9.12;71.67;100626.56;5048129;28;20255;-64
2024/03/14 10:07:05;;;;;;;25.47;18.50;;;;;;;9.27;72.22;100635.19;5043064;28;20198;-66
2024/03/14 10:09:34;;;;;;;25.60;18.23;;;;;;;9.44;71.48;100628.41;5029799;28;20213;-66
2024/03/14 10:12:02;;;;;;;26.30;18.93;;;;;;;9.52;69.91;100633.56;5032960;28;20316;-66
2024/03/14 10:14:32;;;;;;;29.10;18.53;;;;;;;9.55;69.38;100626.72;5034694;28;20202;-66
2024/03/14 10:17:01;;;;;;;26.77;18.10;;;;;;;9.57;69.06;100626.69;5035584;28;20214;-67
2024/03/14 10:19:30;;;;;;;26.43;17.50;;;;;;;9.57;68.72;100622.44;5032441;28;20222;-69
2024/03/14 10:22:01;;;;;;;25.97;19.27;;;;;;;9.55;68.60;100611.28;5033424;28;20202;-68
2024/03/14 10:24:29;;;;;;;24.80;17.70;;;;;;;9.71;69.28;100614.72;5032748;28;20708;-66
2024/03/14 10:26:57;;;;;;;28.93;17.00;;;;;;;10.12;69.48;100613.88;5031025;28;20234;-69
2024/03/14 10:29:29;;;;;;;25.43;18.20;;;;;;;10.40;65.79;100596.69;5034380;28;20295;-66
2024/03/14 10:31:57;;;;;;;24.10;16.50;;;;;;;10.39;65.16;100592.41;5026333;28;20208;-65
2024/03/14 10:34:25;;;;;;;26.23;17.47;;;;;;;10.43;65.07;100595.84;5030020;28;20213;-64
2024/03/14 10:36:54;;;;;;;22.40;16.67;;;;;;;10.50;65.00;100592.41;5027737;28;20290;-69
2024/03/14 10:39:22;;;;;;;25.70;17.40;;;;;;;10.63;65.34;100589.75;5034088;28;20210;-69
2024/03/14 10:41:51;;;;;;;24.27;16.63;;;;;;;10.71;64.35;100588.88;5034551;28;20229;-60
2024/03/14 10:44:19;;;;;;;25.20;17.27;;;;;;;10.84;65.20;100582.84;5033988;28;20276;-63
2024/03/14 10:46:50;;;;;;;25.07;16.87;;;;;;;10.96;64.53;100584.50;5032846;28;20198;-64
2024/03/14 10:49:19;;;;;;;22.10;16.73;;;;;;;11.03;64.33;100581.88;5034702;28;20214;-67
2024/03/14 10:51:49;;;;;;;23.00;17.17;;;;;;;11.11;63.18;100590.44;5032084;28;20202;-65
2024/03/14 10:54:17;;;;;;;23.90;16.97;;;;;;;11.22;63.08;100589.53;5032962;28;20203;-64
2024/03/14 10:56:45;;;;;;;23.23;16.87;;;;;;;11.31;63.28;100587.75;5031761;28;20290;-65
2024/03/14 10:59:16;;;;;;;25.20;16.80;;;;;;;11.41;61.77;100588.53;5034580;28;20202;-69
2024/03/14 11:01:50;;;;;;;25.90;18.37;;;;;;;11.26;61.11;100583.47;5033135;28;20216;-69
2024/03/14 11:04:20;;;;;;;22.60;16.97;;;;;;;11.15;62.05;100578.38;5030085;28;20209;-68
2024/03/14 11:06:49;;;;;;;24.37;17.43;;;;;;;11.11;61.61;100577.53;5030963;28;20213;-67
2024/03/14 11:09:17;;;;;;;24.50;17.27;;;;;;;11.16;62.17;100574.06;5033403;28;20610;-68
2024/03/14 11:11:48;;;;;;;23.33;16.37;;;;;;;11.27;61.91;100574.91;5028189;28;20217;-69
2024/03/14 11:14:16;;;;;;;24.50;16.53;;;;;;;11.43;61.76;100576.50;5034896;28;20214;-68
2024/03/14 11:16:44;;;;;;;22.97;16.37;;;;;;;11.69;61.79;100570.28;5029922;28;20215;-67
2024/03/14 11:19:16;;;;;;;24.20;16.20;;;;;;;11.91;59.49;100566.69;5028196;28;20729;-69
2024/03/14 11:21:44;;;;;;;23.97;16.30;;;;;;;12.11;59.83;100563.06;5033604;28;20221;-69
2024/03/14 11:24:13;;;;;;;20.73;15.33;;;;;;;12.30;58.38;100562.88;5028895;28;20194;-68
2024/03/14 11:26:42;;;;;;;24.07;16.43;;;;;;;12.41;58.74;100554.16;5029488;28;20706;-68